KFKL/FKL METAR and TAF weather

Enter ICAO airport designator
Station Type Date Time Source
KFKL METAR 2020/07/08 01:56 UTC NOAA

KFKL 080156Z AUTO 17007KT 10SM CLR 22/19 A3005 RMK AO2 SLP164 T02170194


Station Type Date Time Source
KFKL Decoded METAR 2020/07/08 01:56 UTC NOAA

Franklin, Venango Regional Airport, PA, United States (KFKL) 41-23N 079-52W
Jul 07, 2020 - 09:56 PM EDT / 2020.07.08 0156 UTC
Wind: from the S (170 degrees) at 8 MPH (7 KT):0
Visibility: 10 mile(s):0
Sky conditions: clear
Temperature: 71.1 F (21.7 C)
Dew Point: 66.9 F (19.4 C)
Relative Humidity: 86%
Pressure (altimeter): 30.05 in. Hg (1017 hPa)
ob: KFKL 080156Z AUTO 17007KT 10SM CLR 22/19 A3005 RMK AO2 SLP164 T02170194
cycle: 2

Station Type Date Time Source
KFKL TAF 2020/07/07 20:58 UTC NOAA

TAF
AMD KFKL 071958Z 0720/0818 24005KT P6SM VCTS BKN050CB
TEMPO 0721/0724 3SM TSRA
FM080000 21003KT P6SM BKN100
FM081100 00000KT 5SM BR SCT100
FM081300 22003KT P6SM SCT100

Example: see airport list